Terminal Aerodrome Forecast
Issued by NWS St Louis, MO

Home | Current Version | Previous Version | Text Only | Print | Product List | Glossary On
Versions: 1 2 3 4 5 6 7 8 9 10 11 12 13 14 15 16 17 18 19 20 21 22 23 24 25 26
000
FTUS43 KLSX 270237 AAA
TAFSTL
TAF AMD
KSTL 270237Z 2703/2806 13006KT P6SM VCSH BKN045
      TEMPO 2703/2704 3SM TSRA OVC035CB
     FM270900 23005KT 6SM -SHRA VCTS OVC045CB
      TEMPO 2710/2714 3SM -TSRA OVC025CB
     FM271500 23007KT P6SM VCSH BKN035
     FM271700 25008KT P6SM BKN045=

USA.gov is the U.S. government's official web portal to all federal, state and local government web resources and services.